Time;durP1;ratioP1;P1;durP2;ratioP2;P2;SDS_P1;SDS_P2;PMS_P1;PMS_P2;Temp;Humidity;BMP_temperature;BMP_pressure;BME280_temperature;BME280_humidity;BME280_pressure;Samples;Min_cycle;Max_cycle;Signal;HPM_P1;HPM_P2
2023/07/19 00:00:37;;;;;;;;;;;19.90;62.70;;;;;;5116235;28;19979;-32
2023/07/19 00:03:03;;;;;;;;;;;19.90;62.80;;;;;;5116568;28;19911;-31
2023/07/19 00:05:29;;;;;;;;;;;19.90;62.90;;;;;;5116589;28;20003;-31
2023/07/19 00:07:54;;;;;;;;;;;19.80;63.00;;;;;;5116462;28;20410;-32
2023/07/19 00:10:20;;;;;;;;;;;19.80;63.10;;;;;;5116072;28;20424;-35
2023/07/19 00:12:45;;;;;;;;;;;19.80;63.10;;;;;;5116391;28;19934;-35
2023/07/19 00:15:11;;;;;;;;;;;19.80;63.10;;;;;;5116049;28;20297;-37
2023/07/19 00:17:36;;;;;;;;;;;19.80;63.10;;;;;;5116057;28;19912;-31
2023/07/19 00:20:02;;;;;;;;;;;19.80;63.10;;;;;;5115883;28;19915;-36
2023/07/19 00:22:28;;;;;;;;;;;19.80;63.20;;;;;;5116235;28;20010;-34
2023/07/19 00:24:53;;;;;;;;;;;19.90;63.40;;;;;;5115939;28;19911;-35
2023/07/19 00:27:19;;;;;;;;;;;19.80;63.40;;;;;;5115847;28;20374;-33
2023/07/19 00:29:44;;;;;;;;;;;19.80;63.40;;;;;;5115825;28;19964;-36
2023/07/19 00:32:10;;;;;;;;;;;19.80;63.50;;;;;;5115823;28;20017;-33
2023/07/19 00:34:35;;;;;;;;;;;19.80;63.60;;;;;;5115579;28;19912;-34
2023/07/19 00:37:01;;;;;;;;;;;19.80;63.70;;;;;;5115994;28;20278;-36
2023/07/19 00:39:27;;;;;;;;;;;19.80;63.70;;;;;;5115682;28;19916;-31
2023/07/19 00:41:53;;;;;;;;;;;19.80;63.80;;;;;;5115479;28;20364;-31
2023/07/19 00:44:18;;;;;;;;;;;19.80;64.00;;;;;;5114730;28;20329;-31
2023/07/19 00:46:44;;;;;;;;;;;19.70;64.10;;;;;;5115230;28;20113;-33
2023/07/19 00:49:10;;;;;;;;;;;19.60;64.30;;;;;;5115739;28;19918;-30
2023/07/19 00:51:36;;;;;;;;;;;19.60;64.50;;;;;;5097129;28;20294;-30
2023/07/19 00:54:03;;;;;;;;;;;19.50;64.50;;;;;;5115364;28;20221;-31
2023/07/19 00:56:29;;;;;;;;;;;19.50;64.70;;;;;;5115206;28;19916;-31
2023/07/19 00:58:54;;;;;;;;;;;19.50;64.90;;;;;;5115012;28;19958;-31
2023/07/19 01:01:21;;;;;;;;;;;19.40;65.10;;;;;;5115120;28;19951;-32
2023/07/19 01:03:46;;;;;;;;;;;19.40;65.20;;;;;;5114967;28;19912;-32
2023/07/19 01:06:12;;;;;;;;;;;19.30;65.20;;;;;;5115397;28;19912;-30
2023/07/19 01:08:38;;;;;;;;;;;19.30;65.30;;;;;;5114926;28;19964;-31
2023/07/19 01:11:03;;;;;;;;;;;19.30;65.30;;;;;;5114955;28;19912;-33
2023/07/19 01:13:29;;;;;;;;;;;19.20;65.40;;;;;;5114816;28;19968;-30
2023/07/19 01:15:54;;;;;;;;;;;19.20;65.50;;;;;;5114891;28;19912;-32
2023/07/19 01:18:20;;;;;;;;;;;19.10;65.60;;;;;;5114976;28;19982;-32
2023/07/19 01:20:46;;;;;;;;;;;19.10;65.80;;;;;;5114610;28;19916;-33
2023/07/19 01:23:11;;;;;;;;;;;19.00;65.90;;;;;;5114889;28;19994;-30
2023/07/19 01:25:37;;;;;;;;;;;19.00;66.00;;;;;;5114467;28;19969;-39
2023/07/19 01:28:03;;;;;;;;;;;19.00;66.10;;;;;;5114571;28;19914;-32
2023/07/19 01:30:28;;;;;;;;;;;18.90;66.20;;;;;;5114661;28;19916;-30
2023/07/19 01:32:54;;;;;;;;;;;18.90;66.30;;;;;;5114570;28;19967;-31
2023/07/19 01:35:19;;;;;;;;;;;18.80;66.40;;;;;;5114710;28;19951;-36
2023/07/19 01:37:45;;;;;;;;;;;18.80;66.50;;;;;;5114717;28;19934;-34
2023/07/19 01:40:11;;;;;;;;;;;18.80;66.60;;;;;;5114469;28;19916;-31
2023/07/19 01:42:37;;;;;;;;;;;18.80;66.70;;;;;;5114568;28;19911;-30
2023/07/19 01:45:03;;;;;;;;;;;18.80;66.80;;;;;;5114321;28;19912;-30
2023/07/19 01:47:28;;;;;;;;;;;18.70;66.80;;;;;;5113910;28;19942;-32
2023/07/19 01:49:54;;;;;;;;;;;18.70;66.90;;;;;;5114226;28;19961;-30
2023/07/19 01:52:19;;;;;;;;;;;18.70;66.90;;;;;;5114329;28;19961;-34
2023/07/19 01:54:45;;;;;;;;;;;18.70;67.10;;;;;;5113811;28;20432;-31
2023/07/19 01:57:11;;;;;;;;;;;18.70;67.10;;;;;;5113147;28;19911;-31
2023/07/19 01:59:36;;;;;;;;;;;18.70;67.30;;;;;;5113887;28;19920;-30
2023/07/19 02:02:02;;;;;;;;;;;18.70;67.40;;;;;;5113897;28;19992;-30
2023/07/19 02:04:27;;;;;;;;;;;18.60;67.40;;;;;;5113844;28;19915;-34
2023/07/19 02:06:53;;;;;;;;;;;18.60;67.60;;;;;;5095715;28;19912;-33
2023/07/19 02:09:18;;;;;;;;;;;18.60;67.70;;;;;;5113812;28;19919;-31
2023/07/19 02:11:44;;;;;;;;;;;18.60;67.70;;;;;;5113776;28;19912;-33
2023/07/19 02:14:09;;;;;;;;;;;18.60;67.80;;;;;;5113682;28;19912;-32
2023/07/19 02:16:35;;;;;;;;;;;18.60;67.90;;;;;;5114027;28;19911;-45
2023/07/19 02:19:03;;;;;;;;;;;18.60;68.00;;;;;;5113473;28;19934;-31
2023/07/19 02:21:29;;;;;;;;;;;18.50;68.00;;;;;;5095172;28;19912;-30
2023/07/19 02:23:54;;;;;;;;;;;18.50;68.10;;;;;;5113942;28;19919;-33
2023/07/19 02:26:20;;;;;;;;;;;18.50;68.20;;;;;;5113808;28;19941;-33
2023/07/19 02:28:46;;;;;;;;;;;18.50;68.20;;;;;;5113834;28;19912;-33
2023/07/19 02:31:11;;;;;;;;;;;18.50;68.20;;;;;;5113686;28;20286;-30
2023/07/19 02:33:37;;;;;;;;;;;18.50;68.20;;;;;;5113417;28;19912;-31
2023/07/19 02:36:02;;;;;;;;;;;18.50;68.20;;;;;;5113654;28;19919;-29
2023/07/19 02:38:28;;;;;;;;;;;18.50;68.20;;;;;;5113624;28;19916;-33
2023/07/19 02:40:57;;;;;;;;;;;18.60;68.30;;;;;;5094917;28;20003;-31
2023/07/19 02:43:23;;;;;;;;;;;18.50;68.40;;;;;;5113454;28;19908;-31
2023/07/19 02:45:48;;;;;;;;;;;18.50;68.40;;;;;;5113061;28;19914;-32
2023/07/19 02:48:14;;;;;;;;;;;18.50;68.40;;;;;;5112967;28;19916;-30
2023/07/19 02:50:43;;;;;;;;;;;18.50;68.50;;;;;;5113092;28;19919;-33
2023/07/19 02:53:09;;;;;;;;;;;18.50;68.50;;;;;;5113104;28;19961;-33
2023/07/19 02:55:34;;;;;;;;;;;18.50;68.50;;;;;;5112925;28;19908;-31
2023/07/19 02:58:00;;;;;;;;;;;18.50;68.60;;;;;;5113052;28;19954;-31
2023/07/19 03:00:26;;;;;;;;;;;18.50;68.60;;;;;;5112705;28;19947;-30
2023/07/19 03:02:53;;;;;;;;;;;18.50;68.60;;;;;;5112882;28;19999;-30
2023/07/19 03:05:22;;;;;;;;;;;18.50;68.60;;;;;;5113261;28;19975;-30
2023/07/19 03:07:48;;;;;;;;;;;18.50;68.70;;;;;;5112310;28;19907;-30
2023/07/19 03:10:13;;;;;;;;;;;18.50;68.70;;;;;;5112473;28;19908;-30
2023/07/19 03:12:39;;;;;;;;;;;18.40;68.80;;;;;;5112836;28;19958;-35
2023/07/19 03:15:05;;;;;;;;;;;18.40;68.80;;;;;;5112450;28;20006;-31
2023/07/19 03:17:30;;;;;;;;;;;18.40;68.80;;;;;;5112913;28;20366;-31
2023/07/19 03:19:56;;;;;;;;;;;18.40;68.90;;;;;;5112737;28;19977;-29
2023/07/19 03:22:21;;;;;;;;;;;18.40;69.00;;;;;;5112735;28;20347;-30
2023/07/19 03:24:47;;;;;;;;;;;18.40;69.00;;;;;;5112891;28;20302;-31
2023/07/19 03:27:12;;;;;;;;;;;18.40;69.00;;;;;;5112623;28;20367;-35
2023/07/19 03:29:38;;;;;;;;;;;18.40;69.10;;;;;;5112446;28;19984;-30
2023/07/19 03:32:03;;;;;;;;;;;18.30;69.10;;;;;;5112827;28;19912;-33
2023/07/19 03:34:29;;;;;;;;;;;18.30;69.10;;;;;;5112400;28;19953;-30
2023/07/19 03:36:55;;;;;;;;;;;18.30;69.10;;;;;;5112397;28;19915;-30
2023/07/19 03:39:20;;;;;;;;;;;18.30;69.10;;;;;;5112394;28;19916;-34
2023/07/19 03:41:45;;;;;;;;;;;18.20;69.10;;;;;;5112441;28;19950;-30
2023/07/19 03:44:11;;;;;;;;;;;18.20;69.20;;;;;;5112464;28;19907;-30
2023/07/19 03:46:36;;;;;;;;;;;18.30;69.30;;;;;;5112218;28;19958;-31
2023/07/19 03:49:03;;;;;;;;;;;18.20;69.30;;;;;;5112348;28;20418;-32
2023/07/19 03:51:29;;;;;;;;;;;18.20;69.40;;;;;;5112424;28;19907;-31
2023/07/19 03:53:55;;;;;;;;;;;18.20;69.40;;;;;;5112625;28;19908;-30
2023/07/19 03:56:20;;;;;;;;;;;18.10;69.40;;;;;;5112321;28;19907;-35
2023/07/19 03:58:48;;;;;;;;;;;18.20;69.40;;;;;;5112351;28;20279;-30
2023/07/19 04:01:14;;;;;;;;;;;18.20;69.30;;;;;;5112119;28;19924;-30
2023/07/19 04:03:40;;;;;;;;;;;18.30;69.20;;;;;;5112201;28;19916;-32
2023/07/19 04:06:06;;;;;;;;;;;18.30;69.00;;;;;;5112293;28;19908;-30
2023/07/19 04:08:33;;;;;;;;;;;18.30;68.70;;;;;;5112219;28;20264;-42
2023/07/19 04:10:59;;;;;;;;;;;18.40;68.50;;;;;;5112229;28;19908;-30
2023/07/19 04:13:26;;;;;;;;;;;18.50;68.30;;;;;;5112151;28;20263;-41
2023/07/19 04:15:51;;;;;;;;;;;18.50;68.00;;;;;;5112388;28;20325;-30
2023/07/19 04:18:17;;;;;;;;;;;18.60;67.90;;;;;;5112114;28;19911;-30
2023/07/19 04:20:42;;;;;;;;;;;18.70;67.70;;;;;;5115744;28;20351;-30
2023/07/19 04:23:08;;;;;;;;;;;18.70;67.50;;;;;;5116191;28;19996;-29
2023/07/19 04:25:33;;;;;;;;;;;18.80;67.50;;;;;;5115798;28;20245;-30
2023/07/19 04:27:59;;;;;;;;;;;18.80;67.30;;;;;;5115853;28;19908;-31
2023/07/19 04:30:25;;;;;;;;;;;18.90;67.30;;;;;;5115801;28;20052;-31
2023/07/19 04:32:54;;;;;;;;;;;18.90;67.30;;;;;;5115831;28;19907;-33
2023/07/19 04:35:23;;;;;;;;;;;18.90;67.30;;;;;;5116006;28;20286;-33
2023/07/19 04:37:49;;;;;;;;;;;18.90;67.20;;;;;;5115691;28;19908;-31
2023/07/19 04:40:16;;;;;;;;;;;18.90;67.20;;;;;;5115802;28;19912;-31
2023/07/19 04:42:41;;;;;;;;;;;18.90;67.20;;;;;;5115814;28;19994;-32
2023/07/19 04:45:07;;;;;;;;;;;18.90;67.10;;;;;;5115646;28;19943;-34
2023/07/19 04:47:32;;;;;;;;;;;18.90;67.10;;;;;;5115579;28;20363;-32
2023/07/19 04:49:58;;;;;;;;;;;18.90;67.10;;;;;;5115500;28;20235;-33
2023/07/19 04:52:23;;;;;;;;;;;18.90;67.10;;;;;;5115447;28;19915;-33
2023/07/19 04:54:49;;;;;;;;;;;18.90;67.10;;;;;;5115423;28;20390;-33
2023/07/19 04:57:15;;;;;;;;;;;18.90;67.00;;;;;;5115525;28;20056;-30
2023/07/19 04:59:41;;;;;;;;;;;19.00;67.10;;;;;;5115225;28;19916;-34
2023/07/19 05:02:07;;;;;;;;;;;19.00;67.10;;;;;;5115419;28;19908;-31
2023/07/19 05:04:33;;;;;;;;;;;19.00;67.10;;;;;;5115298;28;20002;-30
2023/07/19 05:06:58;;;;;;;;;;;18.90;67.10;;;;;;5115116;28;19947;-40
2023/07/19 05:09:24;;;;;;;;;;;19.00;67.20;;;;;;5115377;28;20356;-31
2023/07/19 05:11:49;;;;;;;;;;;19.00;67.20;;;;;;5115063;28;19912;-31
2023/07/19 05:14:15;;;;;;;;;;;19.00;67.10;;;;;;5115415;28;19956;-33
2023/07/19 05:16:40;;;;;;;;;;;19.10;67.20;;;;;;5096650;28;19908;-36
2023/07/19 05:19:06;;;;;;;;;;;19.10;67.20;;;;;;5114817;28;20280;-31
2023/07/19 05:21:31;;;;;;;;;;;19.10;67.20;;;;;;5114918;28;19908;-35
2023/07/19 05:23:57;;;;;;;;;;;19.10;67.30;;;;;;5096688;28;19908;-29
2023/07/19 05:26:24;;;;;;;;;;;19.20;67.30;;;;;;5114823;28;19908;-33
2023/07/19 05:28:49;;;;;;;;;;;19.20;67.40;;;;;;5114837;28;20007;-35
2023/07/19 05:31:15;;;;;;;;;;;19.20;67.40;;;;;;5114655;28;19951;-34
2023/07/19 05:33:40;;;;;;;;;;;19.20;67.50;;;;;;5114565;28;20291;-32
2023/07/19 05:36:06;;;;;;;;;;;19.20;67.60;;;;;;5114684;28;19908;-30
2023/07/19 05:38:32;;;;;;;;;;;19.20;67.60;;;;;;5114588;28;19968;-40
2023/07/19 05:41:01;;;;;;;;;;;19.20;67.70;;;;;;5114492;28;20268;-30
2023/07/19 05:43:27;;;;;;;;;;;19.30;67.80;;;;;;5114487;28;19935;-28
2023/07/19 05:45:52;;;;;;;;;;;19.40;67.70;;;;;;5114397;28;19940;-31
2023/07/19 05:48:18;;;;;;;;;;;19.40;68.00;;;;;;5114304;28;20002;-30
2023/07/19 05:50:43;;;;;;;;;;;19.50;67.60;;;;;;5114430;28;19973;-32
2023/07/19 05:53:09;;;;;;;;;;;19.50;67.60;;;;;;5114604;28;19915;-29
2023/07/19 05:55:35;;;;;;;;;;;19.50;67.70;;;;;;5114283;28;19908;-32
2023/07/19 05:58:01;;;;;;;;;;;19.60;67.60;;;;;;5114283;28;20282;-34
2023/07/19 06:00:28;;;;;;;;;;;19.60;67.70;;;;;;5114012;28;19916;-31
2023/07/19 06:02:57;;;;;;;;;;;19.70;67.70;;;;;;5114149;28;19907;-30
2023/07/19 06:05:23;;;;;;;;;;;19.70;67.60;;;;;;5114143;28;19907;-30
2023/07/19 06:07:48;;;;;;;;;;;19.70;67.70;;;;;;5114084;28;19947;-32
2023/07/19 06:10:14;;;;;;;;;;;19.70;67.60;;;;;;5114026;28;20004;-30
2023/07/19 06:12:43;;;;;;;;;;;19.70;67.60;;;;;;5114604;28;19914;-44
2023/07/19 06:15:08;;;;;;;;;;;19.80;67.60;;;;;;5095487;28;20409;-35
2023/07/19 06:17:34;;;;;;;;;;;19.80;67.50;;;;;;5113784;28;19947;-37
2023/07/19 06:20:00;;;;;;;;;;;19.80;67.50;;;;;;5113956;28;20018;-35
2023/07/19 06:22:25;;;;;;;;;;;19.80;67.60;;;;;;5113997;28;19950;-34
2023/07/19 06:24:51;;;;;;;;;;;19.90;67.70;;;;;;5113698;28;20264;-36
2023/07/19 06:27:16;;;;;;;;;;;19.90;67.80;;;;;;5113648;28;20011;-36
2023/07/19 06:29:42;;;;;;;;;;;19.90;67.60;;;;;;5113531;28;19912;-32
2023/07/19 06:32:08;;;;;;;;;;;20.00;67.60;;;;;;5113510;28;19912;-34
2023/07/19 06:34:34;;;;;;;;;;;20.10;67.40;;;;;;5113556;28;19908;-31
2023/07/19 06:36:59;;;;;;;;;;;20.10;67.30;;;;;;5113489;28;19908;-32
2023/07/19 06:39:25;;;;;;;;;;;20.20;67.20;;;;;;5113469;28;19908;-31
2023/07/19 06:41:50;;;;;;;;;;;20.20;67.10;;;;;;5112975;28;20390;-35
2023/07/19 06:44:16;;;;;;;;;;;20.20;67.00;;;;;;5113282;28;20048;-32
2023/07/19 06:46:41;;;;;;;;;;;20.20;66.80;;;;;;5112945;28;19916;-30
2023/07/19 06:49:07;;;;;;;;;;;20.20;66.60;;;;;;5113465;28;19955;-32
2023/07/19 06:51:32;;;;;;;;;;;20.20;67.20;;;;;;5113003;28;19908;-35
2023/07/19 06:53:58;;;;;;;;;;;20.20;66.50;;;;;;5113138;28;19995;-35
2023/07/19 06:56:23;;;;;;;;;;;20.30;66.30;;;;;;5112985;28;20295;-32
2023/07/19 06:58:49;;;;;;;;;;;20.40;66.00;;;;;;5113158;28;19999;-36
2023/07/19 07:01:14;;;;;;;;;;;20.50;65.70;;;;;;5112817;28;19984;-33
2023/07/19 07:03:40;;;;;;;;;;;20.60;65.40;;;;;;5112655;28;19915;-30
2023/07/19 07:06:05;;;;;;;;;;;20.70;65.30;;;;;;5112752;28;19957;-29
2023/07/19 07:08:31;;;;;;;;;;;20.80;65.10;;;;;;5112715;28;20305;-30
2023/07/19 07:10:58;;;;;;;;;;;20.90;64.80;;;;;;5112829;28;19908;-31
2023/07/19 07:13:24;;;;;;;;;;;21.00;64.70;;;;;;5112593;28;19930;-32
2023/07/19 07:15:50;;;;;;;;;;;21.00;64.60;;;;;;5112417;28;20002;-32
2023/07/19 07:18:15;;;;;;;;;;;21.10;64.50;;;;;;5112284;28;19908;-30
2023/07/19 07:20:41;;;;;;;;;;;21.10;64.40;;;;;;5112321;28;19919;-32
2023/07/19 07:23:06;;;;;;;;;;;21.10;64.30;;;;;;5112286;28;19947;-30
2023/07/19 07:25:33;;;;;;;;;;;21.20;64.50;;;;;;5112368;28;19908;-30
2023/07/19 07:27:59;;;;;;;;;;;21.20;64.50;;;;;;5112450;28;19907;-30
2023/07/19 07:30:25;;;;;;;;;;;21.20;64.50;;;;;;5112355;28;19938;-33
2023/07/19 07:32:50;;;;;;;;;;;21.10;64.50;;;;;;5112303;28;19992;-33
2023/07/19 07:35:17;;;;;;;;;;;21.20;64.50;;;;;;5112271;28;19919;-33
2023/07/19 07:37:43;;;;;;;;;;;21.10;64.60;;;;;;5112139;28;20004;-31
2023/07/19 07:40:08;;;;;;;;;;;21.10;64.70;;;;;;5112097;28;20389;-30
2023/07/19 07:42:34;;;;;;;;;;;21.10;64.80;;;;;;5112296;28;19908;-31
2023/07/19 07:44:59;;;;;;;;;;;21.10;64.80;;;;;;5112188;28;19994;-42
2023/07/19 07:47:25;;;;;;;;;;;21.10;64.70;;;;;;5111994;28;19916;-30
2023/07/19 07:49:51;;;;;;;;;;;21.10;64.70;;;;;;5112769;28;19932;-37
2023/07/19 07:52:17;;;;;;;;;;;21.10;64.70;;;;;;5112450;28;19951;-30
2023/07/19 07:54:44;;;;;;;;;;;21.10;64.70;;;;;;5114665;28;20270;-34
2023/07/19 07:57:09;;;;;;;;;;;21.10;64.80;;;;;;5116289;28;19915;-31
2023/07/19 07:59:35;;;;;;;;;;;21.10;64.70;;;;;;5116232;28;19916;-31
2023/07/19 08:02:00;;;;;;;;;;;21.10;64.80;;;;;;5116427;28;19908;-35
2023/07/19 08:04:27;;;;;;;;;;;21.10;64.80;;;;;;5116159;28;19907;-30
2023/07/19 08:06:53;;;;;;;;;;;21.00;64.80;;;;;;5116171;28;19907;-40
2023/07/19 08:09:18;;;;;;;;;;;21.10;64.80;;;;;;5116129;28;19916;-32
2023/07/19 08:11:44;;;;;;;;;;;21.10;64.70;;;;;;5116093;28;19968;-33
2023/07/19 08:14:10;;;;;;;;;;;21.10;64.70;;;;;;5116080;28;19908;-33
2023/07/19 08:16:35;;;;;;;;;;;21.10;64.70;;;;;;5116152;28;19908;-30
2023/07/19 08:19:00;;;;;;;;;;;21.20;64.90;;;;;;5115899;28;20421;-33
2023/07/19 08:21:26;;;;;;;;;;;21.10;64.70;;;;;;5097370;28;20363;-34
2023/07/19 08:23:55;;;;;;;;;;;21.20;64.70;;;;;;5115793;28;20007;-34
2023/07/19 08:26:21;;;;;;;;;;;21.20;64.60;;;;;;5115714;28;19915;-31
2023/07/19 08:28:47;;;;;;;;;;;21.30;64.50;;;;;;5115813;28;19908;-32
2023/07/19 08:31:14;;;;;;;;;;;21.30;64.50;;;;;;5115865;28;19908;-30
2023/07/19 08:33:40;;;;;;;;;;;21.40;64.50;;;;;;5116141;28;20342;-31
2023/07/19 08:36:05;;;;;;;;;;;21.40;64.50;;;;;;5115727;28;19955;-34
2023/07/19 08:38:31;;;;;;;;;;;21.50;64.40;;;;;;5097320;28;20382;-32
2023/07/19 08:41:02;;;;;;;;;;;21.60;64.30;;;;;;5115410;28;20268;-35
2023/07/19 08:43:28;;;;;;;;;;;21.80;64.10;;;;;;5115500;28;20290;-32
2023/07/19 08:45:55;;;;;;;;;;;21.90;63.80;;;;;;5115467;28;19932;-31
2023/07/19 08:48:20;;;;;;;;;;;22.00;62.90;;;;;;5115354;28;19927;-33
2023/07/19 08:50:51;;;;;;;;;;;22.10;63.40;;;;;;5115420;28;20353;-31
2023/07/19 08:53:16;;;;;;;;;;;22.30;62.70;;;;;;5115354;28;19907;-34
2023/07/19 08:55:42;;;;;;;;;;;22.40;62.50;;;;;;5115558;28;19914;-32
2023/07/19 08:58:07;;;;;;;;;;;22.50;62.10;;;;;;5115368;28;19918;-32
2023/07/19 09:00:34;;;;;;;;;;;22.50;61.80;;;;;;5114930;28;19973;-32
2023/07/19 09:03:00;;;;;;;;;;;22.50;61.70;;;;;;5115102;28;19908;-31
2023/07/19 09:05:27;;;;;;;;;;;22.60;61.60;;;;;;5114667;28;19908;-31
2023/07/19 09:07:52;;;;;;;;;;;22.60;61.40;;;;;;5115146;28;19908;-33
2023/07/19 09:10:18;;;;;;;;;;;22.60;61.50;;;;;;5115011;28;19911;-31
2023/07/19 09:12:44;;;;;;;;;;;22.60;61.70;;;;;;5115055;28;20011;-31
2023/07/19 09:15:10;;;;;;;;;;;22.60;61.60;;;;;;5114885;28;20355;-34
2023/07/19 09:17:37;;;;;;;;;;;22.70;61.70;;;;;;5114858;28;19908;-30
2023/07/19 09:20:04;;;;;;;;;;;22.70;61.60;;;;;;5114705;28;19957;-31
2023/07/19 09:22:29;;;;;;;;;;;22.80;61.60;;;;;;5114654;28;20390;-30
2023/07/19 09:24:57;;;;;;;;;;;22.90;61.60;;;;;;5114711;28;19908;-30
2023/07/19 09:27:23;;;;;;;;;;;23.00;61.50;;;;;;5114755;28;19943;-31
2023/07/19 09:29:50;;;;;;;;;;;23.20;61.40;;;;;;5114614;28;20021;-31
2023/07/19 09:32:15;;;;;;;;;;;23.40;61.00;;;;;;5114700;28;19908;-30
2023/07/19 09:34:41;;;;;;;;;;;23.40;60.80;;;;;;5114862;28;20298;-30
2023/07/19 09:37:06;;;;;;;;;;;23.40;60.70;;;;;;5114464;28;19908;-30
2023/07/19 09:39:34;;;;;;;;;;;23.40;60.50;;;;;;5114811;28;19915;-31
2023/07/19 09:41:59;;;;;;;;;;;23.40;60.20;;;;;;5114391;28;20363;-31
2023/07/19 09:44:26;;;;;;;;;;;23.20;60.00;;;;;;5114380;28;19914;-32
2023/07/19 09:46:51;;;;;;;;;;;23.10;60.30;;;;;;5114082;28;19920;-29
2023/07/19 09:49:17;;;;;;;;;;;23.00;60.20;;;;;;5114335;28;19908;-31
2023/07/19 09:51:42;;;;;;;;;;;22.90;59.80;;;;;;5114414;28;19908;-34
2023/07/19 09:54:09;;;;;;;;;;;22.80;59.80;;;;;;5114262;28;20355;-30
2023/07/19 09:56:35;;;;;;;;;;;22.80;59.80;;;;;;5114542;28;20018;-33
2023/07/19 09:59:01;;;;;;;;;;;22.80;59.70;;;;;;5114192;28;20234;-32
2023/07/19 10:01:26;;;;;;;;;;;22.80;59.70;;;;;;5114106;28;19923;-34
2023/07/19 10:03:52;;;;;;;;;;;22.90;59.70;;;;;;5114033;28;19908;-33
2023/07/19 10:06:17;;;;;;;;;;;22.90;59.50;;;;;;5114091;28;19949;-33
2023/07/19 10:08:43;;;;;;;;;;;23.00;59.10;;;;;;5113863;28;19950;-31
2023/07/19 10:11:20;;;;;;;;;;;23.00;59.00;;;;;;5113963;28;19914;-35
2023/07/19 10:13:53;;;;;;;;;;;23.20;58.90;;;;;;5113853;28;19953;-33
2023/07/19 10:16:24;;;;;;;;;;;23.30;58.50;;;;;;5113072;28;19912;-32
2023/07/19 10:19:10;;;;;;;;;;;23.40;58.00;;;;;;5113675;28;19914;-31
2023/07/19 10:21:36;;;;;;;;;;;23.40;59.00;;;;;;5113930;28;19911;-37
2023/07/19 10:24:13;;;;;;;;;;;23.50;58.50;;;;;;5113762;28;19915;-31
2023/07/19 10:26:39;;;;;;;;;;;23.40;58.10;;;;;;5113714;28;19947;-31
2023/07/19 10:29:04;;;;;;;;;;;23.50;58.50;;;;;;5113756;28;20264;-31
2023/07/19 10:31:30;;;;;;;;;;;23.40;58.30;;;;;;5113597;28;19998;-33
2023/07/19 10:33:56;;;;;;;;;;;23.40;58.40;;;;;;5113572;28;19930;-29
2023/07/19 10:36:22;;;;;;;;;;;23.30;58.20;;;;;;5113780;28;20351;-38
2023/07/19 10:38:47;;;;;;;;;;;23.20;59.40;;;;;;5095141;28;19995;-31
2023/07/19 10:41:15;;;;;;;;;;;23.00;59.90;;;;;;5113436;28;19912;-33
2023/07/19 10:43:41;;;;;;;;;;;23.00;61.40;;;;;;5113306;28;19911;-43
2023/07/19 10:46:07;;;;;;;;;;;22.80;61.50;;;;;;5113087;28;19918;-49
2023/07/19 10:48:33;;;;;;;;;;;22.80;62.20;;;;;;5113248;28;19922;-45
2023/07/19 10:51:00;;;;;;;;;;;22.70;62.50;;;;;;5113378;28;19999;-45
2023/07/19 10:53:26;;;;;;;;;;;22.60;62.50;;;;;;5113083;28;19907;-43
2023/07/19 10:55:52;;;;;;;;;;;22.60;63.10;;;;;;5113147;28;19907;-45
2023/07/19 10:58:18;;;;;;;;;;;22.50;63.20;;;;;;5113095;28;19973;-46
2023/07/19 11:00:43;;;;;;;;;;;22.40;63.80;;;;;;5113018;28;19919;-46
2023/07/19 11:03:13;;;;;;;;;;;22.40;63.30;;;;;;5113260;28;20355;-46
2023/07/19 11:05:40;;;;;;;;;;;22.50;63.40;;;;;;5112798;28;19939;-44
2023/07/19 11:08:06;;;;;;;;;;;22.50;63.40;;;;;;5094497;28;19953;-45
2023/07/19 11:10:32;;;;;;;;;;;22.70;63.30;;;;;;5112638;28;19995;-47
2023/07/19 11:12:57;;;;;;;;;;;22.80;63.60;;;;;;5112833;28;19911;-37
2023/07/19 11:15:26;;;;;;;;;;;22.90;63.10;;;;;;5094851;28;19908;-39
2023/07/19 11:17:55;;;;;;;;;;;23.00;62.90;;;;;;5112811;28;19965;-40
2023/07/19 11:20:27;;;;;;;;;;;23.00;62.50;;;;;;5112508;28;19912;-44
2023/07/19 11:23:01;;;;;;;;;;;23.10;62.40;;;;;;5112920;28;20295;-57
2023/07/19 11:25:27;;;;;;;;;;;23.20;62.30;;;;;;5112843;28;20426;-40
2023/07/19 11:27:52;;;;;;;;;;;23.30;62.10;;;;;;5112640;28;19947;-38
2023/07/19 11:30:18;;;;;;;;;;;23.50;61.90;;;;;;5112978;28;19947;-37
2023/07/19 11:32:43;;;;;;;;;;;23.70;61.70;;;;;;5112624;28;19912;-38
2023/07/19 11:35:08;;;;;;;;;;;23.80;61.30;;;;;;5112691;28;20398;-38
2023/07/19 11:37:36;;;;;;;;;;;24.00;61.00;;;;;;5112884;28;19961;-39
2023/07/19 11:40:05;;;;;;;;;;;24.10;60.90;;;;;;5112403;28;20002;-39
2023/07/19 11:42:39;;;;;;;;;;;24.10;60.20;;;;;;5112518;28;19960;-39
2023/07/19 11:45:09;;;;;;;;;;;24.00;60.20;;;;;;5112674;28;19961;-38
2023/07/19 11:47:35;;;;;;;;;;;23.80;60.40;;;;;;5112224;28;20267;-40
2023/07/19 11:50:03;;;;;;;;;;;23.60;60.80;;;;;;5112045;28;20363;-40
2023/07/19 11:52:29;;;;;;;;;;;23.60;61.40;;;;;;5112600;28;20374;-37
2023/07/19 11:54:55;;;;;;;;;;;23.50;61.60;;;;;;5112464;28;19912;-38
2023/07/19 11:57:21;;;;;;;;;;;23.40;61.90;;;;;;5112369;28;20283;-38
2023/07/19 11:59:48;;;;;;;;;;;23.30;62.00;;;;;;5112418;28;19923;-38
2023/07/19 12:02:13;;;;;;;;;;;23.50;62.10;;;;;;5112231;28;19969;-40
2023/07/19 12:04:39;;;;;;;;;;;23.50;61.80;;;;;;5112297;28;20317;-38
2023/07/19 12:07:05;;;;;;;;;;;23.60;61.80;;;;;;5112400;28;20443;-39
2023/07/19 12:09:30;;;;;;;;;;;23.50;61.70;;;;;;5112352;28;19912;-53
2023/07/19 12:11:56;;;;;;;;;;;23.50;61.90;;;;;;5112290;28;20324;-40
2023/07/19 12:14:21;;;;;;;;;;;23.30;62.20;;;;;;5112289;28;19937;-38
2023/07/19 12:16:47;;;;;;;;;;;23.10;63.50;;;;;;5112290;28;19919;-34
2023/07/19 12:19:14;;;;;;;;;;;22.80;64.30;;;;;;5112146;28;20003;-32
2023/07/19 12:21:40;;;;;;;;;;;22.50;65.80;;;;;;5112067;28;19915;-30
2023/07/19 12:24:06;;;;;;;;;;;22.10;66.40;;;;;;5112160;28;19974;-28
2023/07/19 12:26:31;;;;;;;;;;;21.80;67.00;;;;;;5111983;28;19955;-30
2023/07/19 12:28:57;;;;;;;;;;;21.60;67.70;;;;;;5111932;28;19912;-32
2023/07/19 12:31:22;;;;;;;;;;;21.30;68.30;;;;;;5111839;28;19912;-31
2023/07/19 12:33:49;;;;;;;;;;;21.20;68.60;;;;;;5111965;28;19911;-33
2023/07/19 12:36:14;;;;;;;;;;;21.20;69.10;;;;;;5111917;28;20298;-30
2023/07/19 12:38:40;;;;;;;;;;;21.20;69.10;;;;;;5111924;28;20004;-30
2023/07/19 12:41:06;;;;;;;;;;;21.30;69.00;;;;;;5096130;28;19915;-29
2023/07/19 12:43:31;;;;;;;;;;;21.40;68.90;;;;;;5115612;28;19919;-29
2023/07/19 12:45:57;;;;;;;;;;;21.70;69.40;;;;;;5115492;28;19912;-31
2023/07/19 12:48:23;;;;;;;;;;;22.00;68.80;;;;;;5115321;28;19920;-34
2023/07/19 12:50:48;;;;;;;;;;;22.20;69.00;;;;;;5115396;28;19998;-28
2023/07/19 12:53:15;;;;;;;;;;;22.30;68.40;;;;;;5115286;28;19912;-30
2023/07/19 12:55:40;;;;;;;;;;;22.40;68.30;;;;;;5097015;28;19911;-29
2023/07/19 12:58:06;;;;;;;;;;;22.40;68.20;;;;;;5115523;28;19912;-31
2023/07/19 13:00:31;;;;;;;;;;;22.40;68.30;;;;;;5115145;28;19945;-33
2023/07/19 13:02:57;;;;;;;;;;;22.50;68.30;;;;;;5115076;28;19960;-32
2023/07/19 13:05:22;;;;;;;;;;;22.50;68.20;;;;;;5115047;28;19919;-30
2023/07/19 13:07:50;;;;;;;;;;;22.50;68.40;;;;;;5115039;28;19943;-34
2023/07/19 13:10:16;;;;;;;;;;;22.50;68.50;;;;;;5115037;28;19918;-30
2023/07/19 13:12:41;;;;;;;;;;;22.50;68.70;;;;;;5115211;28;20014;-36
2023/07/19 13:15:07;;;;;;;;;;;22.50;68.60;;;;;;5096617;28;19912;-33
2023/07/19 13:17:32;;;;;;;;;;;22.50;68.60;;;;;;5115187;28;20359;-42
2023/07/19 13:19:59;;;;;;;;;;;22.60;68.70;;;;;;5114935;28;19963;-29
2023/07/19 13:22:24;;;;;;;;;;;22.60;68.60;;;;;;5114877;28;19919;-28
2023/07/19 13:24:50;;;;;;;;;;;22.60;68.70;;;;;;5114694;28;19912;-29
2023/07/19 13:27:15;;;;;;;;;;;22.70;68.80;;;;;;5114664;28;20228;-34
2023/07/19 13:29:41;;;;;;;;;;;22.70;68.90;;;;;;5114598;28;19912;-29
2023/07/19 13:32:06;;;;;;;;;;;22.60;68.90;;;;;;5114670;28;19912;-27
2023/07/19 13:34:32;;;;;;;;;;;22.60;69.00;;;;;;5114513;28;20006;-30
2023/07/19 13:36:57;;;;;;;;;;;22.50;69.20;;;;;;5114616;28;19915;-29
2023/07/19 13:39:23;;;;;;;;;;;22.40;69.20;;;;;;5114334;28;19911;-30
2023/07/19 13:41:48;;;;;;;;;;;22.40;69.40;;;;;;5114326;28;20073;-27
2023/07/19 13:44:14;;;;;;;;;;;22.40;69.70;;;;;;5114617;28;19915;-37
2023/07/19 13:46:39;;;;;;;;;;;22.50;69.60;;;;;;5114026;28;19916;-41
2023/07/19 13:49:05;;;;;;;;;;;22.50;69.60;;;;;;5114386;28;19912;-31
2023/07/19 13:51:31;;;;;;;;;;;22.60;69.80;;;;;;5114261;28;19919;-28
2023/07/19 13:53:56;;;;;;;;;;;22.60;69.70;;;;;;5114424;28;20306;-27
2023/07/19 13:56:22;;;;;;;;;;;22.60;70.00;;;;;;5114310;28;19916;-27
2023/07/19 13:58:47;;;;;;;;;;;22.50;69.80;;;;;;5114165;28;19912;-33
2023/07/19 14:01:13;;;;;;;;;;;22.40;69.70;;;;;;5114165;28;19964;-28
2023/07/19 14:03:39;;;;;;;;;;;22.40;70.10;;;;;;5113995;28;20280;-28
2023/07/19 14:06:04;;;;;;;;;;;22.40;70.10;;;;;;5114073;28;19923;-31
2023/07/19 14:08:30;;;;;;;;;;;22.40;70.60;;;;;;5114021;28;20488;-28